sensor_id;sensor_type;location;lat;lon;timestamp;pressure;altitude;pressure_sealevel;temperature;humidity
20156;BME280;10238;49.556;10.956;2022-12-18T00:00:12;99688.81;;;-11.03;100.00
20156;BME280;10238;49.556;10.956;2022-12-18T00:03:00;99685.41;;;-11.05;100.00
20156;BME280;10238;49.556;10.956;2022-12-18T00:05:49;99684.53;;;-11.09;100.00
20156;BME280;10238;49.556;10.956;2022-12-18T00:08:38;99688.78;;;-11.09;100.00
20156;BME280;10238;49.556;10.956;2022-12-18T00:11:29;99675.09;;;-11.11;100.00
20156;BME280;10238;49.556;10.956;2022-12-18T00:14:17;99679.38;;;-11.12;100.00
20156;BME280;10238;49.556;10.956;2022-12-18T00:17:05;99677.66;;;-11.14;100.00
20156;BME280;10238;49.556;10.956;2022-12-18T00:19:54;99673.34;;;-11.14;100.00
20156;BME280;10238;49.556;10.956;2022-12-18T00:22:43;99672.50;;;-11.16;100.00
20156;BME280;10238;49.556;10.956;2022-12-18T00:25:33;99678.50;;;-11.18;100.00
20156;BME280;10238;49.556;10.956;2022-12-18T00:28:21;99682.75;;;-11.19;100.00
20156;BME280;10238;49.556;10.956;2022-12-18T00:31:11;99680.19;;;-11.20;100.00
20156;BME280;10238;49.556;10.956;2022-12-18T00:34:00;99678.44;;;-11.24;100.00
20156;BME280;10238;49.556;10.956;2022-12-18T00:36:48;99676.72;;;-11.25;100.00
20156;BME280;10238;49.556;10.956;2022-12-18T00:39:37;99677.56;;;-11.28;100.00
20156;BME280;10238;49.556;10.956;2022-12-18T00:42:25;99680.97;;;-11.29;100.00
20156;BME280;10238;49.556;10.956;2022-12-18T00:45:31;99690.34;;;-11.32;100.00
20156;BME280;10238;49.556;10.956;2022-12-18T00:48:20;99677.50;;;-11.34;100.00
20156;BME280;10238;49.556;10.956;2022-12-18T00:51:07;99663.84;;;-11.37;100.00
20156;BME280;10238;49.556;10.956;2022-12-18T00:53:55;99662.94;;;-11.39;100.00
20156;BME280;10238;49.556;10.956;2022-12-18T00:56:45;99659.50;;;-11.42;100.00
20156;BME280;10238;49.556;10.956;2022-12-18T00:59:35;99668.03;;;-11.46;100.00
20156;BME280;10238;49.556;10.956;2022-12-18T01:02:25;99673.16;;;-11.46;100.00
20156;BME280;10238;49.556;10.956;2022-12-18T01:05:15;99690.25;;;-11.48;100.00
20156;BME280;10238;49.556;10.956;2022-12-18T01:08:03;99698.78;;;-11.50;100.00
20156;BME280;10238;49.556;10.956;2022-12-18T01:10:51;99693.63;;;-11.52;100.00
20156;BME280;10238;49.556;10.956;2022-12-18T01:13:40;99703.06;;;-11.52;100.00
20156;BME280;10238;49.556;10.956;2022-12-18T01:16:28;99710.72;;;-11.55;100.00
20156;BME280;10238;49.556;10.956;2022-12-18T01:19:16;99708.97;;;-11.58;100.00
20156;BME280;10238;49.556;10.956;2022-12-18T01:22:04;99702.13;;;-11.62;100.00
20156;BME280;10238;49.556;10.956;2022-12-18T01:24:52;99712.34;;;-11.66;100.00
20156;BME280;10238;49.556;10.956;2022-12-18T01:27:40;99708.06;;;-11.69;100.00
20156;BME280;10238;49.556;10.956;2022-12-18T01:30:29;99720.88;;;-11.69;100.00
20156;BME280;10238;49.556;10.956;2022-12-18T01:33:17;99708.91;;;-11.73;100.00
20156;BME280;10238;49.556;10.956;2022-12-18T01:36:06;99717.41;;;-11.74;100.00
20156;BME280;10238;49.556;10.956;2022-12-18T01:38:54;99718.25;;;-11.76;100.00
20156;BME280;10238;49.556;10.956;2022-12-18T01:41:45;99716.53;;;-11.77;100.00
20156;BME280;10238;49.556;10.956;2022-12-18T01:45:02;99721.69;;;-11.77;100.00
20156;BME280;10238;49.556;10.956;2022-12-18T01:47:53;99731.91;;;-11.80;100.00
20156;BME280;10238;49.556;10.956;2022-12-18T01:50:44;99733.56;;;-11.84;100.00
20156;BME280;10238;49.556;10.956;2022-12-18T01:53:32;99736.09;;;-11.87;100.00
20156;BME280;10238;49.556;10.956;2022-12-18T01:56:21;99735.25;;;-11.89;100.00
20156;BME280;10238;49.556;10.956;2022-12-18T01:59:09;99725.78;;;-11.91;100.00
20156;BME280;10238;49.556;10.956;2022-12-18T02:01:58;99724.06;;;-11.95;100.00
20156;BME280;10238;49.556;10.956;2022-12-18T02:04:49;99731.72;;;-11.97;100.00
20156;BME280;10238;49.556;10.956;2022-12-18T02:07:42;99744.53;;;-11.97;100.00
20156;BME280;10238;49.556;10.956;2022-12-18T02:10:38;99742.84;;;-11.98;100.00
20156;BME280;10238;49.556;10.956;2022-12-18T02:13:36;99743.63;;;-12.02;100.00
20156;BME280;10238;49.556;10.956;2022-12-18T02:16:37;99729.94;;;-12.05;100.00
20156;BME280;10238;49.556;10.956;2022-12-18T02:19:54;99737.59;;;-12.08;100.00
20156;BME280;10238;49.556;10.956;2022-12-18T02:23:00;99740.19;;;-12.05;100.00
20156;BME280;10238;49.556;10.956;2022-12-18T02:26:05;99727.31;;;-12.10;100.00
20156;BME280;10238;49.556;10.956;2022-12-18T02:28:56;99721.31;;;-12.12;100.00
20156;BME280;10238;49.556;10.956;2022-12-18T02:31:51;99725.50;;;-12.20;100.00
20156;BME280;10238;49.556;10.956;2022-12-18T02:34:40;99732.31;;;-12.22;100.00
20156;BME280;10238;49.556;10.956;2022-12-18T02:37:31;99739.16;;;-12.22;100.00
20156;BME280;10238;49.556;10.956;2022-12-18T02:40:23;99741.72;;;-12.22;100.00
20156;BME280;10238;49.556;10.956;2022-12-18T02:43:15;99742.56;;;-12.22;100.00
20156;BME280;10238;49.556;10.956;2022-12-18T02:46:24;99759.63;;;-12.21;100.00
20156;BME280;10238;49.556;10.956;2022-12-18T02:49:26;99765.59;;;-12.23;100.00
20156;BME280;10238;49.556;10.956;2022-12-18T02:52:28;99762.22;;;-12.22;100.00
20156;BME280;10238;49.556;10.956;2022-12-18T02:55:27;99758.84;;;-12.18;100.00
20156;BME280;10238;49.556;10.956;2022-12-18T02:58:27;99763.22;;;-12.07;100.00
20156;BME280;10238;49.556;10.956;2022-12-18T03:01:21;99749.69;;;-11.95;100.00
20156;BME280;10238;49.556;10.956;2022-12-18T03:04:16;99745.47;;;-11.92;100.00
20156;BME280;10238;49.556;10.956;2022-12-18T03:07:11;99745.53;;;-11.81;100.00
20156;BME280;10238;49.556;10.956;2022-12-18T03:10:04;99745.59;;;-11.77;100.00
20156;BME280;10238;49.556;10.956;2022-12-18T03:12:59;99729.44;;;-11.70;100.00
20156;BME280;10238;49.556;10.956;2022-12-18T03:15:54;99733.00;;;-11.47;100.00
20156;BME280;10238;49.556;10.956;2022-12-18T03:18:46;99734.84;;;-11.32;100.00
20156;BME280;10238;49.556;10.956;2022-12-18T03:21:38;99755.44;;;-11.20;100.00
20156;BME280;10238;49.556;10.956;2022-12-18T03:24:30;99752.94;;;-11.11;100.00
20156;BME280;10238;49.556;10.956;2022-12-18T03:27:20;99752.13;;;-11.05;100.00
20156;BME280;10238;49.556;10.956;2022-12-18T03:30:13;99759.94;;;-10.84;100.00
20156;BME280;10238;49.556;10.956;2022-12-18T03:33:07;99750.56;;;-10.82;100.00
20156;BME280;10238;49.556;10.956;2022-12-18T03:35:56;99757.34;;;-10.89;100.00
20156;BME280;10238;49.556;10.956;2022-12-18T03:38:45;99768.50;;;-10.85;100.00
20156;BME280;10238;49.556;10.956;2022-12-18T03:41:35;99777.09;;;-10.85;100.00
20156;BME280;10238;49.556;10.956;2022-12-18T03:44:39;99769.41;;;-10.80;100.00
20156;BME280;10238;49.556;10.956;2022-12-18T03:47:34;99760.88;;;-10.76;100.00
20156;BME280;10238;49.556;10.956;2022-12-18T03:50:34;99774.56;;;-10.73;100.00
20156;BME280;10238;49.556;10.956;2022-12-18T03:53:28;99766.88;;;-10.71;100.00
20156;BME280;10238;49.556;10.956;2022-12-18T03:56:24;99767.78;;;-10.62;100.00
20156;BME280;10238;49.556;10.956;2022-12-18T03:59:16;99768.75;;;-10.43;100.00
20156;BME280;10238;49.556;10.956;2022-12-18T04:02:06;99771.28;;;-10.45;100.00
20156;BME280;10238;49.556;10.956;2022-12-18T04:04:57;99779.88;;;-10.41;100.00
20156;BME280;10238;49.556;10.956;2022-12-18T04:07:48;99774.72;;;-10.46;100.00
20156;BME280;10238;49.556;10.956;2022-12-18T04:10:37;99775.59;;;-10.42;100.00
20156;BME280;10238;49.556;10.956;2022-12-18T04:13:29;99779.06;;;-10.36;100.00
20156;BME280;10238;49.556;10.956;2022-12-18T04:16:19;99780.81;;;-10.23;100.00
20156;BME280;10238;49.556;10.956;2022-12-18T04:19:07;99781.72;;;-10.16;100.00
20156;BME280;10238;49.556;10.956;2022-12-18T04:21:55;99791.16;;;-10.11;100.00
20156;BME280;10238;49.556;10.956;2022-12-18T04:24:45;99779.19;;;-10.10;100.00
20156;BME280;10238;49.556;10.956;2022-12-18T04:27:33;99779.13;;;-10.03;100.00
20156;BME280;10238;49.556;10.956;2022-12-18T04:30:21;99782.59;;;-9.96;100.00
20156;BME280;10238;49.556;10.956;2022-12-18T04:33:10;99783.47;;;-9.97;100.00
20156;BME280;10238;49.556;10.956;2022-12-18T04:35:59;99785.19;;;-9.89;100.00
20156;BME280;10238;49.556;10.956;2022-12-18T04:38:47;99786.91;;;-9.86;100.00
20156;BME280;10238;49.556;10.956;2022-12-18T04:41:36;99795.53;;;-9.78;100.00
20156;BME280;10238;49.556;10.956;2022-12-18T04:44:24;99793.78;;;-9.76;100.00
20156;BME280;10238;49.556;10.956;2022-12-18T04:47:12;99788.66;;;-9.73;100.00
20156;BME280;10238;49.556;10.956;2022-12-18T04:49:59;99785.25;;;-9.63;100.00
20156;BME280;10238;49.556;10.956;2022-12-18T04:52:48;99774.13;;;-9.61;100.00
20156;BME280;10238;49.556;10.956;2022-12-18T04:55:36;99773.28;;;-9.49;100.00
20156;BME280;10238;49.556;10.956;2022-12-18T04:58:25;99769.84;;;-9.45;100.00
20156;BME280;10238;49.556;10.956;2022-12-18T05:01:15;99778.41;;;-9.36;100.00
20156;BME280;10238;49.556;10.956;2022-12-18T05:04:04;99780.16;;;-9.24;100.00
20156;BME280;10238;49.556;10.956;2022-12-18T05:06:52;99781.88;;;-9.20;100.00
20156;BME280;10238;49.556;10.956;2022-12-18T05:09:40;99766.44;;;-9.14;100.00
20156;BME280;10238;49.556;10.956;2022-12-18T05:12:28;99761.28;;;-9.05;100.00
20156;BME280;10238;49.556;10.956;2022-12-18T05:15:17;99776.69;;;-8.93;100.00
20156;BME280;10238;49.556;10.956;2022-12-18T05:18:06;99778.44;;;-8.95;100.00
20156;BME280;10238;49.556;10.956;2022-12-18T05:20:54;99778.44;;;-8.92;100.00
20156;BME280;10238;49.556;10.956;2022-12-18T05:23:42;99792.13;;;-8.84;100.00
20156;BME280;10238;49.556;10.956;2022-12-18T05:26:30;99780.13;;;-8.79;100.00
20156;BME280;10238;49.556;10.956;2022-12-18T05:29:19;99786.97;;;-8.78;100.00
20156;BME280;10238;49.556;10.956;2022-12-18T05:32:08;99790.38;;;-8.64;100.00
20156;BME280;10238;49.556;10.956;2022-12-18T05:34:56;99786.94;;;-8.52;100.00
20156;BME280;10238;49.556;10.956;2022-12-18T05:37:44;99780.91;;;-8.47;100.00
20156;BME280;10238;49.556;10.956;2022-12-18T05:40:32;99782.63;;;-8.50;100.00
20156;BME280;10238;49.556;10.956;2022-12-18T05:43:21;99784.31;;;-8.42;100.00
20156;BME280;10238;49.556;10.956;2022-12-18T05:46:12;99787.75;;;-8.41;100.00
20156;BME280;10238;49.556;10.956;2022-12-18T05:49:03;99786.88;;;-8.36;100.00
20156;BME280;10238;49.556;10.956;2022-12-18T05:51:51;99797.19;;;-8.33;100.00
20156;BME280;10238;49.556;10.956;2022-12-18T05:54:39;99798.03;;;-8.29;100.00
20156;BME280;10238;49.556;10.956;2022-12-18T05:57:27;99794.59;;;-8.33;100.00
20156;BME280;10238;49.556;10.956;2022-12-18T06:00:16;99795.47;;;-8.28;100.00
20156;BME280;10238;49.556;10.956;2022-12-18T06:03:04;99793.72;;;-8.23;100.00
20156;BME280;10238;49.556;10.956;2022-12-18T06:05:53;99789.38;;;-8.16;100.00
20156;BME280;10238;49.556;10.956;2022-12-18T06:08:41;99803.09;;;-8.10;100.00
20156;BME280;10238;49.556;10.956;2022-12-18T06:11:32;99815.13;;;-8.10;100.00
20156;BME280;10238;49.556;10.956;2022-12-18T06:14:22;99802.25;;;-8.09;100.00
20156;BME280;10238;49.556;10.956;2022-12-18T06:17:10;99809.06;;;-7.99;100.00
20156;BME280;10238;49.556;10.956;2022-12-18T06:19:58;99810.75;;;-7.92;100.00
20156;BME280;10238;49.556;10.956;2022-12-18T06:22:47;99795.25;;;-7.86;100.00
20156;BME280;10238;49.556;10.956;2022-12-18T06:25:38;99803.00;;;-7.86;100.00
20156;BME280;10238;49.556;10.956;2022-12-18T06:28:26;99800.41;;;-7.83;100.00
20156;BME280;10238;49.556;10.956;2022-12-18T06:31:14;99796.94;;;-7.79;100.00
20156;BME280;10238;49.556;10.956;2022-12-18T06:34:03;99802.06;;;-7.73;100.00
20156;BME280;10238;49.556;10.956;2022-12-18T06:36:51;99811.47;;;-7.66;100.00
20156;BME280;10238;49.556;10.956;2022-12-18T06:39:40;99817.50;;;-7.64;100.00
20156;BME280;10238;49.556;10.956;2022-12-18T06:42:29;99817.47;;;-7.58;100.00
20156;BME280;10238;49.556;10.956;2022-12-18T06:45:17;99822.63;;;-7.58;100.00
20156;BME280;10238;49.556;10.956;2022-12-18T06:48:05;99818.28;;;-7.53;100.00
20156;BME280;10238;49.556;10.956;2022-12-18T06:50:53;99815.69;;;-7.47;100.00
20156;BME280;10238;49.556;10.956;2022-12-18T06:53:41;99820.81;;;-7.44;100.00
20156;BME280;10238;49.556;10.956;2022-12-18T06:56:31;99825.09;;;-7.41;100.00
20156;BME280;10238;49.556;10.956;2022-12-18T06:59:19;99831.09;;;-7.35;100.00
20156;BME280;10238;49.556;10.956;2022-12-18T07:02:09;99830.16;;;-7.25;100.00
20156;BME280;10238;49.556;10.956;2022-12-18T07:04:58;99833.63;;;-7.27;100.00
20156;BME280;10238;49.556;10.956;2022-12-18T07:07:51;99833.56;;;-7.14;100.00
20156;BME280;10238;49.556;10.956;2022-12-18T07:10:41;99824.06;;;-7.15;100.00
20156;BME280;10238;49.556;10.956;2022-12-18T07:13:36;99818.88;;;-7.12;100.00
20156;BME280;10238;49.556;10.956;2022-12-18T07:16:24;99807.66;;;-7.08;100.00
20156;BME280;10238;49.556;10.956;2022-12-18T07:19:14;99803.31;;;-7.03;100.00
20156;BME280;10238;49.556;10.956;2022-12-18T07:22:03;99812.78;;;-7.03;100.00
20156;BME280;10238;49.556;10.956;2022-12-18T07:24:51;99811.00;;;-6.95;100.00
20156;BME280;10238;49.556;10.956;2022-12-18T07:27:40;99810.09;;;-6.90;100.00
20156;BME280;10238;49.556;10.956;2022-12-18T07:30:32;99813.53;;;-6.88;100.00
20156;BME280;10238;49.556;10.956;2022-12-18T07:33:20;99827.25;;;-6.83;100.00
20156;BME280;10238;49.556;10.956;2022-12-18T07:36:10;99827.22;;;-6.77;100.00
20156;BME280;10238;49.556;10.956;2022-12-18T07:38:58;99824.59;;;-6.73;100.00
20156;BME280;10238;49.556;10.956;2022-12-18T07:41:46;99833.19;;;-6.68;100.00
20156;BME280;10238;49.556;10.956;2022-12-18T07:44:54;99838.31;;;-6.62;100.00
20156;BME280;10238;49.556;10.956;2022-12-18T07:47:43;99845.19;;;-6.61;100.00
20156;BME280;10238;49.556;10.956;2022-12-18T07:50:32;99851.19;;;-6.56;100.00
20156;BME280;10238;49.556;10.956;2022-12-18T07:53:20;99858.06;;;-6.55;100.00
20156;BME280;10238;49.556;10.956;2022-12-18T07:56:10;99855.44;;;-6.52;100.00
20156;BME280;10238;49.556;10.956;2022-12-18T07:59:16;99860.44;;;-6.36;100.00
20156;BME280;10238;49.556;10.956;2022-12-18T08:02:06;99859.56;;;-6.32;100.00
20156;BME280;10238;49.556;10.956;2022-12-18T08:04:56;99862.09;;;-6.27;100.00
20156;BME280;10238;49.556;10.956;2022-12-18T08:07:45;99859.41;;;-6.18;100.00
20156;BME280;10238;49.556;10.956;2022-12-18T08:10:33;99864.50;;;-6.11;100.00
20156;BME280;10238;49.556;10.956;2022-12-18T08:13:22;99857.56;;;-6.07;100.00
20156;BME280;10238;49.556;10.956;2022-12-18T08:16:09;99860.88;;;-5.96;100.00
20156;BME280;10238;49.556;10.956;2022-12-18T08:18:58;99859.06;;;-5.87;100.00
20156;BME280;10238;49.556;10.956;2022-12-18T08:21:50;99865.84;;;-5.78;100.00
20156;BME280;10238;49.556;10.956;2022-12-18T08:24:38;99870.13;;;-5.79;100.00
20156;BME280;10238;49.556;10.956;2022-12-18T08:27:28;99857.03;;;-5.65;100.00
20156;BME280;10238;49.556;10.956;2022-12-18T08:30:17;99860.50;;;-5.65;100.00
20156;BME280;10238;49.556;10.956;2022-12-18T08:33:05;99854.31;;;-5.53;100.00
20156;BME280;10238;49.556;10.956;2022-12-18T08:35:53;99855.16;;;-5.51;100.00
20156;BME280;10238;49.556;10.956;2022-12-18T08:38:42;99862.78;;;-5.44;100.00
20156;BME280;10238;49.556;10.956;2022-12-18T08:41:33;99857.59;;;-5.44;100.00
20156;BME280;10238;49.556;10.956;2022-12-18T08:44:21;99863.47;;;-5.28;100.00
20156;BME280;10238;49.556;10.956;2022-12-18T08:47:26;99861.66;;;-5.23;100.00
20156;BME280;10238;49.556;10.956;2022-12-18T08:50:14;99871.91;;;-5.16;100.00
20156;BME280;10238;49.556;10.956;2022-12-18T08:53:03;99862.38;;;-5.12;100.00
20156;BME280;10238;49.556;10.956;2022-12-18T08:55:52;99857.00;;;-5.00;100.00
20156;BME280;10238;49.556;10.956;2022-12-18T08:58:41;99852.63;;;-4.97;100.00
20156;BME280;10238;49.556;10.956;2022-12-18T09:01:29;99848.22;;;-4.90;100.00
20156;BME280;10238;49.556;10.956;2022-12-18T09:04:17;99846.44;;;-4.88;100.00
20156;BME280;10238;49.556;10.956;2022-12-18T09:07:05;99848.84;;;-4.76;100.00
20156;BME280;10238;49.556;10.956;2022-12-18T09:09:53;99851.41;;;-4.75;100.00
20156;BME280;10238;49.556;10.956;2022-12-18T09:12:43;99852.13;;;-4.65;100.00
20156;BME280;10238;49.556;10.956;2022-12-18T09:15:31;99848.66;;;-4.64;100.00
20156;BME280;10238;49.556;10.956;2022-12-18T09:18:20;99829.44;;;-4.54;100.00
20156;BME280;10238;49.556;10.956;2022-12-18T09:21:10;99844.00;;;-4.46;100.00
20156;BME280;10238;49.556;10.956;2022-12-18T09:23:58;99846.47;;;-4.38;100.00
20156;BME280;10238;49.556;10.956;2022-12-18T09:26:46;99842.09;;;-4.34;100.00
20156;BME280;10238;49.556;10.956;2022-12-18T09:29:37;99840.22;;;-4.28;100.00
20156;BME280;10238;49.556;10.956;2022-12-18T09:32:25;99840.09;;;-4.20;100.00
20156;BME280;10238;49.556;10.956;2022-12-18T09:35:13;99833.91;;;-4.15;100.00
20156;BME280;10238;49.556;10.956;2022-12-18T09:38:01;99840.78;;;-4.11;100.00
20156;BME280;10238;49.556;10.956;2022-12-18T09:40:52;99821.63;;;-4.05;100.00
20156;BME280;10238;49.556;10.956;2022-12-18T09:43:45;99820.59;;;-3.97;100.00
20156;BME280;10238;49.556;10.956;2022-12-18T09:46:38;99821.22;;;-3.86;100.00
20156;BME280;10238;49.556;10.956;2022-12-18T09:49:30;99808.09;;;-3.78;100.00
20156;BME280;10238;49.556;10.956;2022-12-18T09:52:23;99815.66;;;-3.68;100.00
20156;BME280;10238;49.556;10.956;2022-12-18T09:55:20;99819.09;;;-3.66;100.00
20156;BME280;10238;49.556;10.956;2022-12-18T09:58:17;99817.25;;;-3.61;100.00
20156;BME280;10238;49.556;10.956;2022-12-18T10:01:10;99814.53;;;-3.55;100.00
20156;BME280;10238;49.556;10.956;2022-12-18T10:04:02;99818.63;;;-3.45;100.00
20156;BME280;10238;49.556;10.956;2022-12-18T10:06:54;99814.34;;;-3.46;100.00
20156;BME280;10238;49.556;10.956;2022-12-18T10:10:00;99806.22;;;-3.31;100.00
20156;BME280;10238;49.556;10.956;2022-12-18T10:12:57;99801.63;;;-3.21;100.00
20156;BME280;10238;49.556;10.956;2022-12-18T10:16:04;99789.34;;;-3.13;100.00
20156;BME280;10238;49.556;10.956;2022-12-18T10:19:10;99785.56;;;-3.00;100.00
20156;BME280;10238;49.556;10.956;2022-12-18T10:22:11;99785.94;;;-2.82;100.00
20156;BME280;10238;49.556;10.956;2022-12-18T10:25:05;99787.97;;;-2.58;100.00
20156;BME280;10238;49.556;10.956;2022-12-18T10:28:08;99782.06;;;-2.32;100.00
20156;BME280;10238;49.556;10.956;2022-12-18T10:30:58;99770.06;;;-2.38;100.00
20156;BME280;10238;49.556;10.956;2022-12-18T10:33:46;99785.91;;;-2.47;100.00
20156;BME280;10238;49.556;10.956;2022-12-18T10:36:36;99771.75;;;-2.37;100.00
20156;BME280;10238;49.556;10.956;2022-12-18T10:39:25;99768.41;;;-2.74;100.00
20156;BME280;10238;49.556;10.956;2022-12-18T10:42:18;99775.94;;;-2.63;100.00
20156;BME280;10238;49.556;10.956;2022-12-18T10:45:10;99777.25;;;-2.47;100.00
20156;BME280;10238;49.556;10.956;2022-12-18T10:48:00;99779.34;;;-2.28;100.00
20156;BME280;10238;49.556;10.956;2022-12-18T10:50:49;99781.50;;;-2.11;100.00
20156;BME280;10238;49.556;10.956;2022-12-18T10:54:01;99777.56;;;-2.26;100.00
20156;BME280;10238;49.556;10.956;2022-12-18T10:56:51;99777.44;;;-2.21;100.00
20156;BME280;10238;49.556;10.956;2022-12-18T10:59:52;99779.81;;;-2.46;100.00
20156;BME280;10238;49.556;10.956;2022-12-18T11:02:41;99781.16;;;-2.65;100.00
20156;BME280;10238;49.556;10.956;2022-12-18T11:05:31;99781.50;;;-2.43;100.00
20156;BME280;10238;49.556;10.956;2022-12-18T11:08:21;99789.41;;;-2.48;100.00
20156;BME280;10238;49.556;10.956;2022-12-18T11:11:21;99770.53;;;-2.24;100.00
20156;BME280;10238;49.556;10.956;2022-12-18T11:14:15;99760.13;;;-2.24;100.00
20156;BME280;10238;49.556;10.956;2022-12-18T11:17:16;99748.47;;;-2.10;100.00
20156;BME280;10238;49.556;10.956;2022-12-18T11:20:22;99754.75;;;-2.50;100.00
20156;BME280;10238;49.556;10.956;2022-12-18T11:23:12;99747.50;;;-2.37;100.00
20156;BME280;10238;49.556;10.956;2022-12-18T11:26:02;99745.63;;;-2.34;100.00
20156;BME280;10238;49.556;10.956;2022-12-18T11:29:06;99748.41;;;-2.09;100.00
20156;BME280;10238;49.556;10.956;2022-12-18T11:32:22;99751.19;;;-2.13;100.00
20156;BME280;10238;49.556;10.956;2022-12-18T11:35:17;99740.66;;;-2.10;100.00
20156;BME280;10238;49.556;10.956;2022-12-18T11:38:17;99741.91;;;-1.94;100.00
20156;BME280;10238;49.556;10.956;2022-12-18T11:41:11;99735.63;;;-2.16;100.00
20156;BME280;10238;49.556;10.956;2022-12-18T11:44:06;99718.19;;;-2.14;100.00
20156;BME280;10238;49.556;10.956;2022-12-18T11:47:01;99720.38;;;-1.99;100.00
20156;BME280;10238;49.556;10.956;2022-12-18T11:49:56;99728.81;;;-2.22;100.00
20156;BME280;10238;49.556;10.956;2022-12-18T11:52:49;99723.25;;;-2.08;100.00
20156;BME280;10238;49.556;10.956;2022-12-18T11:56:01;99716.78;;;-2.26;100.00
20156;BME280;10238;49.556;10.956;2022-12-18T11:58:57;99707.75;;;-2.44;100.00
20156;BME280;10238;49.556;10.956;2022-12-18T12:01:52;99716.22;;;-2.68;100.00
20156;BME280;10238;49.556;10.956;2022-12-18T12:04:57;99717.84;;;-2.64;100.00
20156;BME280;10238;49.556;10.956;2022-12-18T12:07:57;99715.63;;;-2.47;100.00
20156;BME280;10238;49.556;10.956;2022-12-18T12:10:55;99713.13;;;-2.19;100.00
20156;BME280;10238;49.556;10.956;2022-12-18T12:13:55;99716.91;;;-2.31;100.00
20156;BME280;10238;49.556;10.956;2022-12-18T12:16:55;99713.91;;;-2.15;100.00
20156;BME280;10238;49.556;10.956;2022-12-18T12:19:51;99695.44;;;-2.08;100.00
20156;BME280;10238;49.556;10.956;2022-12-18T12:22:48;99703.66;;;-1.92;100.00
20156;BME280;10238;49.556;10.956;2022-12-18T12:25:43;99692.84;;;-2.08;100.00
20156;BME280;10238;49.556;10.956;2022-12-18T12:28:52;99696.53;;;-2.15;100.00
20156;BME280;10238;49.556;10.956;2022-12-18T12:32:00;99694.94;;;-1.91;100.00
20156;BME280;10238;49.556;10.956;2022-12-18T12:35:05;99696.00;;;-2.28;100.00
20156;BME280;10238;49.556;10.956;2022-12-18T12:38:06;99695.59;;;-2.12;100.00
20156;BME280;10238;49.556;10.956;2022-12-18T12:41:00;99684.28;;;-2.13;100.00
20156;BME280;10238;49.556;10.956;2022-12-18T12:43:49;99689.16;;;-2.01;100.00
20156;BME280;10238;49.556;10.956;2022-12-18T12:46:40;99684.72;;;-1.97;100.00
20156;BME280;10238;49.556;10.956;2022-12-18T12:49:32;99687.03;;;-2.17;100.00
20156;BME280;10238;49.556;10.956;2022-12-18T12:52:30;99687.78;;;-2.12;100.00
20156;BME280;10238;49.556;10.956;2022-12-18T12:55:23;99676.34;;;-2.08;100.00
20156;BME280;10238;49.556;10.956;2022-12-18T12:58:16;99667.53;;;-2.04;100.00
20156;BME280;10238;49.556;10.956;2022-12-18T13:01:16;99670.97;;;-2.02;100.00
20156;BME280;10238;49.556;10.956;2022-12-18T13:04:18;99680.84;;;-1.84;100.00
20156;BME280;10238;49.556;10.956;2022-12-18T13:07:16;99679.81;;;-1.79;100.00
20156;BME280;10238;49.556;10.956;2022-12-18T13:13:16;99672.69;;;-1.46;100.00
20156;BME280;10238;49.556;10.956;2022-12-18T13:16:09;99662.72;;;-1.34;100.00
20156;BME280;10238;49.556;10.956;2022-12-18T13:18:58;99667.78;;;-1.29;100.00
20156;BME280;10238;49.556;10.956;2022-12-18T13:21:53;99653.84;;;-1.28;100.00
20156;BME280;10238;49.556;10.956;2022-12-18T13:24:43;99650.41;;;-1.56;100.00
20156;BME280;10238;49.556;10.956;2022-12-18T13:27:57;99647.84;;;-1.85;100.00
20156;BME280;10238;49.556;10.956;2022-12-18T13:30:53;99657.59;;;-1.90;100.00
20156;BME280;10238;49.556;10.956;2022-12-18T13:33:44;99659.59;;;-2.00;100.00
20156;BME280;10238;49.556;10.956;2022-12-18T13:36:56;99662.34;;;-2.04;100.00
20156;BME280;10238;49.556;10.956;2022-12-18T13:39:47;99671.19;;;-2.10;100.00
20156;BME280;10238;49.556;10.956;2022-12-18T13:42:41;99664.53;;;-1.91;100.00
20156;BME280;10238;49.556;10.956;2022-12-18T13:45:49;99668.44;;;-1.76;100.00
20156;BME280;10238;49.556;10.956;2022-12-18T13:48:55;99664.50;;;-1.89;100.00
20156;BME280;10238;49.556;10.956;2022-12-18T13:51:46;99658.78;;;-1.73;100.00
20156;BME280;10238;49.556;10.956;2022-12-18T13:54:41;99647.91;;;-1.87;100.00
20156;BME280;10238;49.556;10.956;2022-12-18T13:57:35;99648.84;;;-1.89;100.00
20156;BME280;10238;49.556;10.956;2022-12-18T14:00:27;99637.69;;;-2.22;100.00
20156;BME280;10238;49.556;10.956;2022-12-18T14:03:19;99632.22;;;-2.42;100.00
20156;BME280;10238;49.556;10.956;2022-12-18T14:06:10;99634.72;;;-2.39;100.00
20156;BME280;10238;49.556;10.956;2022-12-18T14:09:00;99636.34;;;-2.35;100.00
20156;BME280;10238;49.556;10.956;2022-12-18T14:11:52;99639.31;;;-2.18;100.00
20156;BME280;10238;49.556;10.956;2022-12-18T14:15:06;99636.41;;;-2.09;100.00
20156;BME280;10238;49.556;10.956;2022-12-18T14:18:09;99634.25;;;-2.22;100.00
20156;BME280;10238;49.556;10.956;2022-12-18T14:21:04;99634.50;;;-2.32;100.00
20156;BME280;10238;49.556;10.956;2022-12-18T14:24:12;99647.63;;;-2.35;100.00
20156;BME280;10238;49.556;10.956;2022-12-18T14:27:21;99653.81;;;-2.39;100.00
20156;BME280;10238;49.556;10.956;2022-12-18T14:30:29;99658.25;;;-2.13;100.00
20156;BME280;10238;49.556;10.956;2022-12-18T14:33:19;99662.41;;;-2.37;100.00
20156;BME280;10238;49.556;10.956;2022-12-18T14:36:16;99665.97;;;-2.39;100.00
20156;BME280;10238;49.556;10.956;2022-12-18T14:39:04;99659.19;;;-2.45;100.00
20156;BME280;10238;49.556;10.956;2022-12-18T14:41:52;99671.63;;;-2.56;100.00
20156;BME280;10238;49.556;10.956;2022-12-18T14:44:41;99666.78;;;-2.68;100.00
20156;BME280;10238;49.556;10.956;2022-12-18T14:47:50;99668.47;;;-2.67;100.00
20156;BME280;10238;49.556;10.956;2022-12-18T14:50:38;99666.13;;;-2.76;100.00